createdAt,value
2023-04-17T00:01:06.985Z,24.08
2023-04-17T00:03:34.324Z,26.90
2023-04-17T00:06:01.978Z,22.33
2023-04-17T00:08:29.257Z,24.08
2023-04-17T00:11:07.082Z,22.83
2023-04-17T00:13:36.145Z,24.73
2023-04-17T00:16:03.845Z,23.73
2023-04-17T00:18:31.113Z,23.48
2023-04-17T00:20:58.704Z,26.60
2023-04-17T00:23:25.999Z,27.70
2023-04-17T00:25:54.717Z,28.33
2023-04-17T00:28:22.049Z,26.65
2023-04-17T00:30:49.670Z,26.20
2023-04-17T00:33:16.926Z,26.52
2023-04-17T00:35:54.423Z,26.70
2023-04-17T00:38:21.985Z,24.88
2023-04-17T00:40:49.666Z,30.58
2023-04-17T00:43:17.372Z,28.85
2023-04-17T00:45:46.510Z,37.05
2023-04-17T00:48:15.122Z,27.85
2023-04-17T00:50:44.122Z,23.40
2023-04-17T00:53:12.246Z,25.17
2023-04-17T00:55:40.653Z,25.35
2023-04-17T00:58:08.244Z,30.27
2023-04-17T01:00:35.851Z,27.63
2023-04-17T01:03:03.623Z,32.30
2023-04-17T01:05:31.442Z,27.58
2023-04-17T01:07:58.739Z,27.25
2023-04-17T01:10:26.290Z,28.20
2023-04-17T01:13:06.602Z,28.58
2023-04-17T01:15:34.905Z,31.70
2023-04-17T01:18:02.829Z,29.38
2023-04-17T01:20:30.497Z,25.67
2023-04-17T01:22:58.061Z,27.13
2023-04-17T01:25:26.025Z,23.92
2023-04-17T01:27:53.537Z,25.77
2023-04-17T01:30:21.209Z,29.27
2023-04-17T01:32:48.572Z,28.55
2023-04-17T01:35:16.280Z,27.70
2023-04-17T01:37:43.569Z,27.50
2023-04-17T01:40:11.312Z,28.55
2023-04-17T01:42:48.596Z,29.98
2023-04-17T01:45:16.219Z,37.50
2023-04-17T01:47:43.519Z,31.83
2023-04-17T01:50:11.363Z,32.85
2023-04-17T01:52:38.683Z,30.15
2023-04-17T01:55:06.546Z,35.10
2023-04-17T01:57:33.859Z,33.17
2023-04-17T02:00:01.539Z,32.63
2023-04-17T02:02:28.987Z,32.30
2023-04-17T02:04:56.676Z,32.00
2023-04-17T02:07:34.122Z,34.60
2023-04-17T02:10:01.753Z,29.88
2023-04-17T02:12:29.081Z,31.70
2023-04-17T02:14:56.600Z,33.00
2023-04-17T02:17:24.895Z,35.15
2023-04-17T02:19:52.503Z,32.58
2023-04-17T02:22:19.769Z,31.92
2023-04-17T02:24:47.336Z,37.53
2023-04-17T02:27:14.575Z,34.22
2023-04-17T02:29:44.072Z,38.72
2023-04-17T02:32:11.331Z,40.15
2023-04-17T02:34:38.880Z,37.72
2023-04-17T02:37:06.194Z,41.00
2023-04-17T02:39:33.818Z,38.10
2023-04-17T02:42:01.384Z,35.90
2023-04-17T02:44:28.972Z,34.80
2023-04-17T02:46:56.322Z,36.42
2023-04-17T02:49:33.045Z,37.70
2023-04-17T02:52:00.343Z,31.85
2023-04-17T02:54:35.787Z,37.03
2023-04-17T02:57:03.075Z,36.83
2023-04-17T02:59:30.826Z,33.53
2023-04-17T03:01:58.203Z,36.42
2023-04-17T03:04:27.961Z,35.53
2023-04-17T03:06:56.367Z,38.92
2023-04-17T03:09:24.000Z,39.45
2023-04-17T03:11:51.294Z,38.03
2023-04-17T03:14:18.863Z,37.80
2023-04-17T03:16:46.379Z,34.35
2023-04-17T03:19:14.067Z,38.05
2023-04-17T03:21:41.310Z,38.85
2023-04-17T03:24:08.884Z,39.83
2023-04-17T03:26:36.158Z,38.28
2023-04-17T03:29:03.726Z,36.80
2023-04-17T03:31:31.152Z,41.10
2023-04-17T03:33:58.774Z,41.55
2023-04-17T03:36:27.447Z,36.05
2023-04-17T03:38:54.974Z,43.60
2023-04-17T03:41:22.244Z,40.83
2023-04-17T03:43:49.846Z,34.40
2023-04-17T03:46:17.211Z,42.10
2023-04-17T03:48:44.778Z,42.53
2023-04-17T03:51:12.116Z,36.33
2023-04-17T03:53:39.790Z,41.33
2023-04-17T03:56:07.162Z,38.97
2023-04-17T03:58:34.814Z,41.45
2023-04-17T04:01:02.124Z,40.60
2023-04-17T04:03:29.666Z,39.88
2023-04-17T04:05:57.584Z,41.10
2023-04-17T04:08:24.862Z,38.83
2023-04-17T04:10:52.465Z,38.20
2023-04-17T04:13:19.765Z,35.33
2023-04-17T04:15:47.395Z,40.38
2023-04-17T04:18:14.746Z,43.72
2023-04-17T04:20:42.321Z,40.60
2023-04-17T04:23:09.597Z,39.88
2023-04-17T04:25:37.233Z,39.42
2023-04-17T04:28:04.631Z,40.20
2023-04-17T04:30:32.166Z,37.63
2023-04-17T04:32:59.577Z,39.63
2023-04-17T04:35:27.182Z,37.83
2023-04-17T04:37:54.505Z,44.63
2023-04-17T04:40:22.081Z,39.78
2023-04-17T04:42:49.394Z,41.03
2023-04-17T04:45:16.949Z,39.83
2023-04-17T04:47:44.326Z,42.22
2023-04-17T04:50:11.971Z,36.83
2023-04-17T04:52:39.316Z,38.70
2023-04-17T04:55:07.018Z,37.88
2023-04-17T04:57:34.323Z,42.28
2023-04-17T05:00:02.009Z,38.60
2023-04-17T05:02:29.439Z,39.67
2023-04-17T05:04:57.163Z,41.50
2023-04-17T05:07:24.561Z,42.53
2023-04-17T05:09:52.147Z,35.40
2023-04-17T05:12:19.421Z,40.13
2023-04-17T05:14:47.003Z,31.45
2023-04-17T05:17:14.287Z,32.88
2023-04-17T05:19:41.860Z,31.88
2023-04-17T05:22:09.191Z,33.80
2023-04-17T05:24:36.833Z,33.40
2023-04-17T05:27:04.241Z,36.55
2023-04-17T05:29:31.793Z,33.40
2023-04-17T05:32:01.273Z,29.85
2023-04-17T05:34:28.981Z,31.05
2023-04-17T05:36:56.289Z,29.27
2023-04-17T05:39:23.900Z,27.23
2023-04-17T05:41:51.196Z,29.40
2023-04-17T05:44:18.729Z,25.08
2023-04-17T05:46:46.023Z,26.52
2023-04-17T05:49:13.789Z,33.45
2023-04-17T05:51:41.096Z,26.83
2023-04-17T05:54:08.726Z,23.60
2023-04-17T05:56:36.031Z,29.27
2023-04-17T05:59:03.591Z,23.25
2023-04-17T06:01:32.097Z,23.95
2023-04-17T06:04:01.524Z,25.13
2023-04-17T06:06:29.294Z,20.83
2023-04-17T06:08:56.911Z,24.40
2023-04-17T06:11:24.240Z,21.88
2023-04-17T06:13:51.841Z,18.65
2023-04-17T06:16:19.202Z,19.83
2023-04-17T06:18:46.823Z,20.02
2023-04-17T06:21:14.263Z,18.92
2023-04-17T06:23:41.918Z,21.30
2023-04-17T06:26:09.222Z,18.75
2023-04-17T06:28:36.855Z,17.92
2023-04-17T06:31:04.302Z,17.65
2023-04-17T06:33:31.912Z,18.88
2023-04-17T06:35:59.171Z,19.67
2023-04-17T06:38:26.734Z,17.60
2023-04-17T06:40:54.001Z,17.92
2023-04-17T06:43:21.589Z,21.77
2023-04-17T06:45:49.016Z,18.80
2023-04-17T06:48:16.570Z,17.70
2023-04-17T06:50:44.017Z,18.60
2023-04-17T06:53:11.595Z,18.83
2023-04-17T06:55:38.960Z,18.05
2023-04-17T06:58:09.372Z,16.63
2023-04-17T07:00:36.645Z,18.00
2023-04-17T07:03:04.934Z,21.58
2023-04-17T07:05:32.498Z,16.75
2023-04-17T07:08:00.142Z,14.73
2023-04-17T07:10:27.522Z,16.63
2023-04-17T07:12:55.178Z,18.52
2023-04-17T07:15:22.497Z,14.25
2023-04-17T07:17:50.411Z,14.48
2023-04-17T07:20:17.791Z,15.82
2023-04-17T07:22:45.383Z,16.70
2023-04-17T07:25:12.674Z,14.90
2023-04-17T07:27:40.302Z,13.63
2023-04-17T07:30:08.229Z,15.25
2023-04-17T07:32:37.933Z,15.32
2023-04-17T07:35:05.469Z,14.60
2023-04-17T07:37:34.223Z,14.40
2023-04-17T07:40:01.517Z,15.38
2023-04-17T07:42:29.045Z,16.20
2023-04-17T07:44:57.103Z,13.65
2023-04-17T07:47:24.799Z,12.20
2023-04-17T07:49:52.285Z,13.35
2023-04-17T07:52:19.844Z,15.75
2023-04-17T07:54:47.150Z,12.85
2023-04-17T07:57:14.840Z,13.02
2023-04-17T07:59:42.226Z,14.23
2023-04-17T08:02:10.081Z,15.27
2023-04-17T08:04:37.595Z,15.23
2023-04-17T08:07:05.717Z,12.88
2023-04-17T08:09:32.982Z,13.07
2023-04-17T08:12:00.529Z,16.90
2023-04-17T08:14:27.884Z,13.93
2023-04-17T08:16:55.517Z,15.40
2023-04-17T08:19:22.919Z,15.40
2023-04-17T08:21:50.848Z,14.48
2023-04-17T08:24:19.741Z,12.93
2023-04-17T08:26:47.745Z,14.63
2023-04-17T08:29:15.339Z,13.40
2023-04-17T08:31:43.301Z,14.85
2023-04-17T08:34:14.755Z,14.27
2023-04-17T08:36:43.206Z,13.85
2023-04-17T08:39:10.854Z,14.90
2023-04-17T08:41:42.560Z,12.38
2023-04-17T08:44:10.222Z,15.07
2023-04-17T08:46:38.406Z,14.80
2023-04-17T08:49:05.901Z,12.43
2023-04-17T08:51:33.606Z,15.32
2023-04-17T08:54:00.935Z,15.70
2023-04-17T08:56:28.879Z,16.98
2023-04-17T08:58:56.605Z,12.38
2023-04-17T09:01:25.285Z,15.40
2023-04-17T09:03:52.998Z,16.88
2023-04-17T09:06:21.766Z,17.23
2023-04-17T09:08:56.080Z,17.88
2023-04-17T09:11:23.879Z,18.95
2023-04-17T09:13:51.214Z,17.60
2023-04-17T09:16:18.939Z,17.77
2023-04-17T09:18:48.167Z,16.65
2023-04-17T09:21:17.007Z,19.45
2023-04-17T09:23:48.944Z,19.80
2023-04-17T09:26:20.529Z,22.42
2023-04-17T09:29:04.470Z,23.63
2023-04-17T09:31:32.537Z,18.17
2023-04-17T09:34:01.615Z,21.15
2023-04-17T09:36:30.351Z,20.70
2023-04-17T09:38:58.393Z,21.02
2023-04-17T09:41:30.179Z,22.90
2023-04-17T09:43:58.469Z,21.95
2023-04-17T09:46:38.448Z,21.42
2023-04-17T09:49:28.806Z,21.92
2023-04-17T09:51:57.611Z,24.23
2023-04-17T09:54:25.169Z,23.75
2023-04-17T09:56:53.017Z,23.70
2023-04-17T09:59:20.462Z,24.10
2023-04-17T10:01:48.389Z,26.75
2023-04-17T10:04:16.086Z,25.70
2023-04-17T10:06:43.880Z,23.25
2023-04-17T10:09:11.194Z,23.35
2023-04-17T10:11:40.653Z,24.70
2023-04-17T10:14:07.881Z,24.42
2023-04-17T10:16:36.280Z,23.70
2023-04-17T10:19:22.151Z,20.48
2023-04-17T10:22:10.700Z,23.52
2023-04-17T10:24:38.192Z,19.42
2023-04-17T10:27:25.796Z,22.20
2023-04-17T10:29:53.239Z,23.40
2023-04-17T10:32:21.137Z,18.92
2023-04-17T10:34:48.629Z,20.92
2023-04-17T10:37:16.233Z,18.98
2023-04-17T10:39:58.954Z,19.67
2023-04-17T10:42:28.623Z,21.40
2023-04-17T10:44:57.753Z,19.25
2023-04-17T10:49:56.833Z,19.77
2023-04-17T10:52:42.491Z,18.67
2023-04-17T10:55:19.115Z,19.00
2023-04-17T10:57:53.318Z,18.50
2023-04-17T11:00:21.714Z,19.23
2023-04-17T11:02:50.958Z,14.00
2023-04-17T11:05:20.097Z,14.98
2023-04-17T11:07:47.990Z,17.27
2023-04-17T11:10:18.636Z,18.52
2023-04-17T11:12:47.186Z,16.67
2023-04-17T11:15:14.555Z,16.38
2023-04-17T11:17:48.798Z,16.45
2023-04-17T11:20:20.189Z,21.38
2023-04-17T11:22:47.948Z,18.75
2023-04-17T11:25:22.050Z,15.25
2023-04-17T11:27:55.332Z,14.30
2023-04-17T11:30:37.188Z,15.10
2023-04-17T11:33:08.264Z,15.25
2023-04-17T11:35:36.654Z,15.00
2023-04-17T11:38:30.320Z,14.40
2023-04-17T11:40:57.958Z,12.20
2023-04-17T11:43:25.766Z,13.13
2023-04-17T11:45:53.806Z,11.77
2023-04-17T11:48:22.156Z,13.23
2023-04-17T11:50:49.671Z,14.15
2023-04-17T11:53:17.738Z,12.15
2023-04-17T11:55:45.428Z,13.85
2023-04-17T11:58:13.816Z,13.02
2023-04-17T12:00:41.258Z,16.05
2023-04-17T12:03:32.049Z,13.07
2023-04-17T12:06:00.597Z,12.55
2023-04-17T12:08:28.693Z,11.93
2023-04-17T12:10:56.188Z,14.90
2023-04-17T12:13:24.185Z,12.27
2023-04-17T12:15:51.447Z,11.95
2023-04-17T12:18:19.099Z,15.05
2023-04-17T12:20:46.384Z,15.30
2023-04-17T12:23:14.081Z,13.60
2023-04-17T12:25:41.353Z,13.48
2023-04-17T12:28:08.973Z,12.70
2023-04-17T12:30:38.456Z,13.57
2023-04-17T12:33:08.654Z,11.77
2023-04-17T12:35:36.281Z,14.48
2023-04-17T12:38:03.978Z,13.15
2023-04-17T12:40:31.290Z,14.30
2023-04-17T12:42:58.868Z,12.27
2023-04-17T12:45:26.310Z,11.98
2023-04-17T12:47:54.174Z,12.60
2023-04-17T12:50:21.523Z,13.60
2023-04-17T12:52:49.186Z,11.63
2023-04-17T12:55:16.513Z,11.73
2023-04-17T12:57:44.303Z,10.80
2023-04-17T13:00:12.075Z,12.48
2023-04-17T13:02:39.874Z,11.93
2023-04-17T13:05:07.531Z,11.80
2023-04-17T13:07:37.949Z,12.80
2023-04-17T13:10:05.501Z,11.20
2023-04-17T13:12:33.085Z,12.07
2023-04-17T13:15:00.397Z,10.82
2023-04-17T13:17:28.044Z,10.85
2023-04-17T13:19:55.365Z,10.23
2023-04-17T13:22:22.898Z,14.07
2023-04-17T13:24:51.649Z,12.68
2023-04-17T13:27:19.204Z,11.93
2023-04-17T13:29:46.481Z,10.95
2023-04-17T13:32:14.040Z,12.27
2023-04-17T13:34:41.328Z,10.20
2023-04-17T13:37:08.928Z,9.32
2023-04-17T13:39:36.471Z,8.52
2023-04-17T13:42:04.129Z,10.57
2023-04-17T13:44:31.460Z,9.55
2023-04-17T13:46:59.099Z,12.90
2023-04-17T13:49:26.479Z,8.13
2023-04-17T13:51:54.107Z,9.02
2023-04-17T13:54:21.354Z,8.15
2023-04-17T13:56:48.955Z,8.77
2023-04-17T13:59:16.325Z,9.10
2023-04-17T14:01:46.153Z,8.30
2023-04-17T14:04:13.703Z,7.55
2023-04-17T14:06:41.577Z,8.00
2023-04-17T14:09:08.905Z,7.65
2023-04-17T14:11:36.431Z,9.18
2023-04-17T14:14:03.724Z,9.75
2023-04-17T14:16:31.374Z,7.72
2023-04-17T14:19:06.385Z,6.68
2023-04-17T14:21:40.700Z,7.82
2023-04-17T14:24:08.061Z,7.50
2023-04-17T14:26:35.624Z,10.65
2023-04-17T14:29:03.144Z,7.65
2023-04-17T14:31:30.884Z,8.82
2023-04-17T14:33:58.315Z,9.05
2023-04-17T14:36:26.178Z,11.50
2023-04-17T14:38:53.681Z,9.43
2023-04-17T14:41:21.483Z,9.88
2023-04-17T14:43:48.763Z,10.70
2023-04-17T14:46:16.411Z,11.55
2023-04-17T14:48:54.726Z,11.75
2023-04-17T14:51:25.867Z,11.27
2023-04-17T14:53:53.460Z,10.57
2023-04-17T14:56:21.168Z,11.80
2023-04-17T14:58:48.570Z,11.48
2023-04-17T15:01:16.401Z,12.75
2023-04-17T15:03:47.420Z,11.77
2023-04-17T15:06:16.706Z,9.95
2023-04-17T15:08:44.149Z,13.48
2023-04-17T15:11:11.861Z,10.88
2023-04-17T15:13:39.236Z,12.77
2023-04-17T15:16:08.809Z,9.60
2023-04-17T15:18:36.309Z,9.75
2023-04-17T15:21:04.013Z,8.55
2023-04-17T15:23:31.765Z,9.77
2023-04-17T15:25:59.438Z,8.30
2023-04-17T15:28:27.187Z,6.55
2023-04-17T15:30:55.371Z,7.45
2023-04-17T15:33:23.032Z,7.50
2023-04-17T15:35:54.370Z,10.85
2023-04-17T15:38:21.788Z,9.70
2023-04-17T15:40:49.430Z,6.35
2023-04-17T15:43:18.169Z,7.60
2023-04-17T15:45:48.528Z,8.43
2023-04-17T15:48:20.476Z,7.65
2023-04-17T15:50:48.260Z,7.63
2023-04-17T15:53:17.382Z,10.23
2023-04-17T15:55:45.541Z,8.57
2023-04-17T15:58:14.517Z,8.13
2023-04-17T16:00:44.442Z,9.75
2023-04-17T16:03:11.891Z,8.75
2023-04-17T16:05:40.105Z,9.50
2023-04-17T16:08:07.454Z,10.93
2023-04-17T16:10:35.320Z,9.98
2023-04-17T16:13:02.647Z,10.57
2023-04-17T16:15:30.248Z,12.38
2023-04-17T16:17:57.719Z,14.20
2023-04-17T16:20:25.576Z,13.48
2023-04-17T16:22:52.915Z,13.27
2023-04-17T16:25:21.005Z,12.27
2023-04-17T16:27:48.516Z,11.00
2023-04-17T16:30:20.698Z,10.88
2023-04-17T16:32:48.050Z,12.43
2023-04-17T16:35:15.820Z,13.00
2023-04-17T16:37:43.119Z,12.20
2023-04-17T16:40:11.429Z,13.25
2023-04-17T16:42:38.846Z,14.68
2023-04-17T16:45:06.710Z,11.82
2023-04-17T16:47:34.154Z,13.43
2023-04-17T16:50:01.881Z,12.73
2023-04-17T16:52:29.202Z,11.38
2023-04-17T16:54:57.038Z,14.88
2023-04-17T16:57:24.308Z,13.52
2023-04-17T16:59:52.056Z,12.82
2023-04-17T17:02:19.401Z,11.82
2023-04-17T17:04:47.234Z,11.90
2023-04-17T17:07:14.558Z,11.63
2023-04-17T17:09:42.221Z,11.27
2023-04-17T17:12:09.553Z,13.75
2023-04-17T17:14:37.311Z,13.77
2023-04-17T17:17:04.656Z,12.85
2023-04-17T17:19:32.461Z,11.25
2023-04-17T17:21:59.836Z,11.73
2023-04-17T17:24:27.502Z,12.63
2023-04-17T17:26:54.806Z,13.82
2023-04-17T17:29:22.529Z,13.80
2023-04-17T17:31:49.931Z,13.55
2023-04-17T17:34:26.115Z,12.77
2023-04-17T17:36:54.365Z,14.30
2023-04-17T17:39:22.484Z,12.20
2023-04-17T17:41:49.844Z,11.63
2023-04-17T17:44:17.902Z,11.80
2023-04-17T17:46:45.347Z,14.02
2023-04-17T17:49:13.101Z,12.38
2023-04-17T17:51:40.417Z,11.35
2023-04-17T17:54:08.134Z,11.88
2023-04-17T17:56:35.421Z,12.98
2023-04-17T17:59:03.327Z,12.07
2023-04-17T18:01:30.904Z,13.00
2023-04-17T18:03:58.923Z,14.30
2023-04-17T18:06:26.436Z,14.65
2023-04-17T18:08:54.197Z,14.27
2023-04-17T18:11:21.573Z,14.85
2023-04-17T18:13:49.175Z,15.45
2023-04-17T18:16:16.699Z,16.25
2023-04-17T18:18:45.790Z,14.50
2023-04-17T18:21:13.192Z,14.20
2023-04-17T18:23:40.834Z,16.30
2023-04-17T18:26:08.138Z,17.27
2023-04-17T18:28:35.784Z,17.27
2023-04-17T18:31:03.262Z,15.52
2023-04-17T18:33:31.219Z,18.42
2023-04-17T18:35:58.540Z,14.60
2023-04-17T18:38:26.306Z,15.52
2023-04-17T18:40:54.482Z,15.93
2023-04-17T18:43:22.347Z,15.30
2023-04-17T18:45:49.819Z,16.23
2023-04-17T18:48:17.604Z,16.38
2023-04-17T18:50:44.962Z,16.05
2023-04-17T18:53:12.929Z,17.05
2023-04-17T18:55:40.265Z,18.83
2023-04-17T18:58:08.117Z,13.95
2023-04-17T19:00:35.663Z,15.57
2023-04-17T19:03:06.764Z,15.88
2023-04-17T19:05:34.489Z,15.75
2023-04-17T19:08:02.222Z,14.55
2023-04-17T19:10:31.395Z,16.27
2023-04-17T19:12:59.356Z,14.70
2023-04-17T19:15:26.878Z,17.58
2023-04-17T19:17:54.629Z,18.70
2023-04-17T19:20:22.160Z,15.88
2023-04-17T19:22:49.839Z,14.95
2023-04-17T19:25:17.374Z,17.08
2023-04-17T19:27:45.215Z,17.30
2023-04-17T19:30:12.855Z,18.13
2023-04-17T19:32:42.420Z,22.45
2023-04-17T19:35:14.249Z,17.83
2023-04-17T19:40:21.565Z,16.23
2023-04-17T19:42:52.520Z,18.15
2023-04-17T19:45:19.900Z,17.92
2023-04-17T19:47:47.949Z,18.17
2023-04-17T19:50:15.468Z,17.30
2023-04-17T19:52:43.091Z,19.25
2023-04-17T19:55:10.463Z,22.42
2023-04-17T19:57:38.129Z,19.90
2023-04-17T20:00:06.302Z,18.63
2023-04-17T20:02:34.258Z,92.28
2023-04-17T20:05:01.764Z,21.15
2023-04-17T20:07:29.749Z,19.85
2023-04-17T20:09:57.075Z,21.00
2023-04-17T20:12:24.762Z,22.02
2023-04-17T20:14:52.047Z,19.98
2023-04-17T20:17:19.709Z,23.42
2023-04-17T20:19:47.078Z,35.75
2023-04-17T20:22:14.679Z,20.63
2023-04-17T20:24:41.980Z,22.63
2023-04-17T20:27:09.565Z,18.65
2023-04-17T20:29:36.919Z,19.60
2023-04-17T20:32:04.515Z,24.98
2023-04-17T20:34:31.822Z,20.92
2023-04-17T20:36:59.389Z,21.17
2023-04-17T20:39:26.646Z,30.20
2023-04-17T20:41:54.607Z,25.75
2023-04-17T20:44:21.963Z,21.65
2023-04-17T20:46:49.758Z,19.92
2023-04-17T20:49:17.061Z,21.55
2023-04-17T20:51:44.715Z,21.85
2023-04-17T20:54:12.276Z,24.58
2023-04-17T20:56:40.156Z,22.58
2023-04-17T20:59:07.614Z,21.90
2023-04-17T21:01:47.561Z,24.15
2023-04-17T21:04:16.598Z,24.27
2023-04-17T21:06:44.361Z,19.35
2023-04-17T21:09:11.633Z,22.38
2023-04-17T21:11:39.252Z,20.45
2023-04-17T21:14:06.742Z,19.88
2023-04-17T21:16:34.836Z,24.08
2023-04-17T21:19:02.303Z,22.48
2023-04-17T21:21:30.438Z,23.02
2023-04-17T21:23:57.726Z,24.38
2023-04-17T21:26:30.925Z,28.25
2023-04-17T21:28:58.228Z,20.98
2023-04-17T21:31:25.967Z,25.10
2023-04-17T21:33:53.635Z,25.35
2023-04-17T21:36:22.353Z,22.50
2023-04-17T21:38:49.756Z,25.77
2023-04-17T21:41:17.369Z,26.83
2023-04-17T21:43:44.960Z,25.20
2023-04-17T21:46:13.058Z,24.30
2023-04-17T21:48:40.408Z,24.75
2023-04-17T21:51:07.979Z,26.17
2023-04-17T21:53:36.055Z,27.40
2023-04-17T21:56:06.829Z,26.38
2023-04-17T21:58:34.600Z,25.33
2023-04-17T22:01:02.853Z,22.90
2023-04-17T22:03:30.335Z,25.02
2023-04-17T22:05:58.220Z,21.88
2023-04-17T22:08:25.525Z,21.42
2023-04-17T22:10:53.125Z,22.48
2023-04-17T22:13:20.821Z,25.73
2023-04-17T22:15:48.770Z,24.33
2023-04-17T22:18:16.131Z,21.88
2023-04-17T22:20:43.753Z,21.77
2023-04-17T22:23:11.076Z,21.77
2023-04-17T22:25:38.653Z,21.75
2023-04-17T22:28:05.946Z,23.40
2023-04-17T22:30:33.563Z,21.63
2023-04-17T22:33:00.870Z,22.60
2023-04-17T22:35:28.515Z,21.42
2023-04-17T22:37:55.829Z,21.15
2023-04-17T22:40:24.592Z,23.05
2023-04-17T22:42:51.872Z,20.42
2023-04-17T22:45:19.465Z,21.63
2023-04-17T22:47:46.861Z,20.88
2023-04-17T22:50:14.506Z,21.92
2023-04-17T22:52:41.892Z,21.98
2023-04-17T22:55:09.512Z,25.58
2023-04-17T22:57:36.791Z,22.30
2023-04-17T23:00:04.650Z,24.85
2023-04-17T23:02:31.995Z,24.30
2023-04-17T23:08:03.279Z,25.00
2023-04-17T23:10:30.842Z,22.88
2023-04-17T23:12:58.189Z,22.33
2023-04-17T23:15:25.765Z,22.35
2023-04-17T23:17:53.086Z,23.23
2023-04-17T23:20:20.722Z,25.48
2023-04-17T23:22:48.094Z,30.48
2023-04-17T23:25:15.776Z,30.20
2023-04-17T23:27:43.078Z,26.60
2023-04-17T23:30:10.798Z,24.13
2023-04-17T23:32:38.222Z,25.67
2023-04-17T23:35:06.100Z,25.02
2023-04-17T23:37:33.320Z,25.17
2023-04-17T23:40:00.932Z,22.70
2023-04-17T23:42:28.213Z,24.20
2023-04-17T23:44:55.798Z,30.33
2023-04-17T23:47:23.169Z,30.42
2023-04-17T23:49:50.799Z,26.00
2023-04-17T23:52:18.030Z,27.33
2023-04-17T23:54:45.572Z,28.50
2023-04-17T23:57:12.806Z,28.60
2023-04-17T23:59:40.345Z,25.17
